createdAt,value
2019-05-14T00:00:26.926Z,0
2019-05-14T00:01:27.487Z,0
2019-05-14T00:06:44.110Z,0
2019-05-14T00:06:57.162Z,0
2019-05-14T00:07:57.598Z,0
2019-05-14T00:08:57.277Z,0
2019-05-14T00:09:57.220Z,0
2019-05-14T00:10:57.288Z,0
2019-05-14T00:11:56.533Z,0
2019-05-14T00:12:56.518Z,0
2019-05-14T00:13:57.426Z,0
2019-05-14T00:14:56.888Z,0
2019-05-14T00:15:57.261Z,0
2019-05-14T00:16:56.621Z,0
2019-05-14T00:17:57.309Z,0
2019-05-14T00:18:56.464Z,0
2019-05-14T00:20:15.435Z,0
2019-05-14T00:20:56.776Z,0
2019-05-14T00:21:56.893Z,0
2019-05-14T00:22:57.430Z,0
2019-05-14T00:23:56.677Z,0
2019-05-14T00:24:58.347Z,0
2019-05-14T00:25:57.570Z,0
2019-05-14T00:26:57.264Z,0
2019-05-14T00:27:57.157Z,0
2019-05-14T00:28:56.468Z,0
2019-05-14T00:29:57.054Z,0
2019-05-14T00:30:57.585Z,0
2019-05-14T00:31:57.202Z,0
2019-05-14T00:32:57.192Z,0
2019-05-14T00:33:56.499Z,0
2019-05-14T00:34:56.876Z,0
2019-05-14T00:35:56.758Z,0
2019-05-14T00:36:57.584Z,0
2019-05-14T00:37:57.576Z,0
2019-05-14T00:38:56.551Z,0
2019-05-14T00:39:57.341Z,0
2019-05-14T00:40:56.632Z,0
2019-05-14T00:41:56.470Z,0
2019-05-14T00:42:55.946Z,0
2019-05-14T00:43:56.979Z,0
2019-05-14T00:45:11.358Z,0
2019-05-14T00:45:56.312Z,0
2019-05-14T00:46:56.917Z,0
2019-05-14T00:47:57.616Z,0
2019-05-14T00:48:56.796Z,0
2019-05-14T00:49:57.340Z,0
2019-05-14T00:50:56.959Z,0
2019-05-14T00:51:57.195Z,0
2019-05-14T00:53:01.704Z,0
2019-05-14T00:53:56.840Z,0
2019-05-14T00:54:57.319Z,0
2019-05-14T00:55:58.187Z,0
2019-05-14T00:56:57.341Z,0
2019-05-14T00:57:57.464Z,0
2019-05-14T00:58:57.344Z,0
2019-05-14T01:01:01.500Z,0
2019-05-14T01:02:14.283Z,0
2019-05-14T01:03:13.760Z,0
2019-05-14T01:04:14.448Z,0
2019-05-14T01:05:14.935Z,0
2019-05-14T01:06:14.080Z,0
2019-05-14T01:07:14.620Z,0
2019-05-14T01:08:14.710Z,0
2019-05-14T01:09:14.123Z,0
2019-05-14T01:10:14.276Z,0
2019-05-14T01:11:14.544Z,0
2019-05-14T01:12:14.840Z,0
2019-05-14T01:13:13.883Z,0
2019-05-14T01:14:14.895Z,0
2019-05-14T01:15:24.424Z,0
2019-05-14T01:16:14.729Z,0
2019-05-14T01:17:14.052Z,0
2019-05-14T01:18:14.062Z,0
2019-05-14T01:19:14.926Z,0
2019-05-14T01:20:15.036Z,0
2019-05-14T01:21:14.388Z,0
2019-05-14T01:22:15.089Z,0
2019-05-14T01:23:14.176Z,0
2019-05-14T01:24:15.127Z,0
2019-05-14T01:25:14.699Z,0
2019-05-14T01:26:14.198Z,0
2019-05-14T01:27:14.919Z,0
2019-05-14T01:28:13.944Z,0
2019-05-14T01:29:14.621Z,0
2019-05-14T01:30:15.206Z,0
2019-05-14T01:31:14.824Z,0
2019-05-14T01:32:14.231Z,0
2019-05-14T01:33:14.466Z,0
2019-05-14T01:34:13.853Z,0
2019-05-14T01:35:14.767Z,0
2019-05-14T01:36:14.886Z,0
2019-05-14T01:37:14.447Z,0
2019-05-14T01:38:14.166Z,0
2019-05-14T01:39:14.669Z,0
2019-05-14T01:40:14.164Z,0
2019-05-14T01:41:14.519Z,0
2019-05-14T01:42:15.198Z,0
2019-05-14T01:43:14.210Z,0
2019-05-14T01:44:14.625Z,0
2019-05-14T01:45:31.608Z,0
2019-05-14T01:46:14.812Z,0
2019-05-14T01:47:15.311Z,0
2019-05-14T01:48:14.344Z,0
2019-05-14T01:49:15.101Z,0
2019-05-14T01:50:14.103Z,0
2019-05-14T01:51:14.540Z,0
2019-05-14T01:52:13.913Z,0
2019-05-14T01:53:14.227Z,0
2019-05-14T01:54:14.580Z,0
2019-05-14T01:55:14.426Z,0
2019-05-14T01:56:14.655Z,0
2019-05-14T01:57:14.231Z,0
2019-05-14T01:58:14.185Z,0
2019-05-14T01:59:14.776Z,0
2019-05-14T02:00:14.151Z,0
2019-05-14T02:01:14.754Z,0
2019-05-14T02:02:14.292Z,0
2019-05-14T02:03:14.762Z,0
2019-05-14T02:04:14.370Z,0
2019-05-14T02:05:14.982Z,0
2019-05-14T02:06:14.524Z,0
2019-05-14T02:07:16.094Z,0
2019-05-14T02:08:14.823Z,0
2019-05-14T02:09:13.797Z,0
2019-05-14T02:10:14.336Z,0
2019-05-14T02:11:14.737Z,0
2019-05-14T02:12:14.376Z,0
2019-05-14T02:13:15.300Z,0
2019-05-14T02:14:14.309Z,0
2019-05-14T02:15:14.740Z,0
2019-05-14T02:16:15.756Z,0
2019-05-14T02:17:14.977Z,0
2019-05-14T02:18:13.777Z,0
2019-05-14T02:19:14.626Z,0
2019-05-14T02:20:15.109Z,0
2019-05-14T02:21:14.492Z,0
2019-05-14T02:22:13.967Z,0
2019-05-14T02:23:14.634Z,0
2019-05-14T02:24:14.042Z,0
2019-05-14T02:25:14.398Z,0
2019-05-14T02:26:14.103Z,0
2019-05-14T02:27:15.078Z,0
2019-05-14T02:28:14.262Z,0
2019-05-14T02:29:15.009Z,0
2019-05-14T02:30:13.002Z,0
2019-05-14T02:31:20.129Z,0
2019-05-14T02:32:18.316Z,0
2019-05-14T02:33:14.582Z,0
2019-05-14T02:34:15.487Z,0
2019-05-14T02:35:15.173Z,0
2019-05-14T02:36:19.190Z,0
2019-05-14T02:37:14.874Z,0
2019-05-14T02:38:19.085Z,0
2019-05-14T02:39:15.504Z,0
2019-05-14T02:40:15.139Z,0
2019-05-14T02:41:15.231Z,0
2019-05-14T02:42:14.854Z,0
2019-05-14T02:43:15.322Z,0
2019-05-14T02:44:18.715Z,0
2019-05-14T02:45:14.194Z,0
2019-05-14T02:46:29.487Z,0
2019-05-14T02:47:15.307Z,0
2019-05-14T02:48:14.802Z,0
2019-05-14T02:49:19.208Z,0
2019-05-14T02:50:15.367Z,0
2019-05-14T02:51:15.768Z,0
2019-05-14T02:52:15.381Z,0
2019-05-14T02:53:15.554Z,0
2019-05-14T02:54:15.291Z,0
2019-05-14T02:55:15.074Z,0
2019-05-14T02:56:15.713Z,0
2019-05-14T02:57:15.789Z,0
2019-05-14T02:58:15.268Z,0
2019-05-14T02:59:19.568Z,0
2019-05-14T03:00:15.569Z,0
2019-05-14T03:01:15.043Z,0
2019-05-14T03:02:15.439Z,0
2019-05-14T03:03:15.173Z,0
2019-05-14T03:04:14.433Z,0
2019-05-14T03:05:15.129Z,0
2019-05-14T03:06:14.704Z,0
2019-05-14T03:07:19.363Z,0
2019-05-14T03:08:14.287Z,0
2019-05-14T03:09:15.081Z,0
2019-05-14T03:10:15.385Z,0
2019-05-14T03:11:14.713Z,0
2019-05-14T03:12:15.538Z,0
2019-05-14T03:13:15.156Z,0
2019-05-14T03:14:14.286Z,0
2019-05-14T03:15:14.986Z,0
2019-05-14T03:16:49.139Z,0
2019-05-14T03:17:19.531Z,0
2019-05-14T03:22:45.347Z,0
2019-05-14T03:23:30.053Z,0
2019-05-14T03:24:11.951Z,0
2019-05-14T03:25:10.070Z,0
2019-05-14T03:26:12.137Z,0
2019-05-14T03:27:09.584Z,0
2019-05-14T03:28:09.197Z,0
2019-05-14T03:29:09.815Z,0
2019-05-14T03:30:14.552Z,0
2019-05-14T03:31:21.728Z,0
2019-05-14T03:32:22.267Z,0
2019-05-14T03:33:21.331Z,0
2019-05-14T03:34:21.483Z,0
2019-05-14T03:35:23.268Z,0
2019-05-14T03:36:42.634Z,0
2019-05-14T03:37:22.923Z,0
2019-05-14T03:38:11.957Z,0
2019-05-14T03:39:10.152Z,0
2019-05-14T03:40:09.185Z,0
2019-05-14T03:41:09.329Z,0
2019-05-14T03:42:12.008Z,0
2019-05-14T03:43:09.001Z,0
2019-05-14T03:44:09.816Z,0
2019-05-14T03:45:08.557Z,0
2019-05-14T03:46:12.370Z,0
2019-05-14T03:47:19.573Z,0
2019-05-14T03:48:12.889Z,0
2019-05-14T03:49:09.240Z,0
2019-05-14T03:50:12.654Z,0
2019-05-14T03:51:11.536Z,0
2019-05-14T03:52:12.118Z,0
2019-05-14T03:53:10.041Z,0
2019-05-14T03:56:52.245Z,0
2019-05-14T03:57:05.699Z,0
2019-05-14T03:58:05.034Z,0
2019-05-14T03:59:05.368Z,0
2019-05-14T04:00:05.356Z,0
2019-05-14T04:01:09.325Z,0
2019-05-14T04:02:04.954Z,0
2019-05-14T04:03:09.438Z,0
2019-05-14T04:04:04.606Z,0
2019-05-14T04:05:05.352Z,0
2019-05-14T04:06:04.779Z,0
2019-05-14T04:07:05.396Z,0
2019-05-14T04:08:05.527Z,0
2019-05-14T04:09:08.737Z,0
2019-05-14T04:10:05.087Z,0
2019-05-14T04:11:09.513Z,0
2019-05-14T04:12:04.713Z,0
2019-05-14T04:13:05.213Z,0
2019-05-14T04:14:05.448Z,0
2019-05-14T04:15:05.228Z,0
2019-05-14T04:16:05.437Z,0
2019-05-14T04:27:03.317Z,5
2019-05-14T04:27:29.457Z,5
2019-05-14T04:28:22.114Z,5
2019-05-14T04:29:22.449Z,5
2019-05-14T04:30:28.984Z,5
2019-05-14T04:31:21.791Z,5
2019-05-14T04:32:22.800Z,5
2019-05-14T04:33:24.150Z,5
2019-05-14T04:34:24.616Z,5
2019-05-14T04:35:22.877Z,5
2019-05-14T04:36:22.394Z,5
2019-05-14T04:37:22.789Z,5
2019-05-14T04:38:22.899Z,5
2019-05-14T04:39:22.208Z,5
2019-05-14T04:40:21.643Z,5
2019-05-14T04:41:24.640Z,5
2019-05-14T04:42:22.987Z,5
2019-05-14T04:43:24.488Z,5
2019-05-14T04:44:21.933Z,5
2019-05-14T04:45:24.944Z,5
2019-05-14T04:46:25.005Z,5
2019-05-14T04:47:49.705Z,5
2019-05-14T04:48:53.174Z,5
2019-05-14T04:49:22.642Z,5
2019-05-14T04:50:25.409Z,5
2019-05-14T04:51:22.551Z,5
2019-05-14T04:52:23.334Z,5
2019-05-14T04:53:22.263Z,5
2019-05-14T04:54:22.141Z,10
2019-05-14T04:55:23.115Z,10
2019-05-14T04:56:22.336Z,10
2019-05-14T04:57:29.910Z,10
2019-05-14T04:58:24.402Z,10
2019-05-14T04:59:24.343Z,10
2019-05-14T05:00:25.110Z,10
2019-05-14T05:01:23.333Z,10
2019-05-14T05:02:22.622Z,10
2019-05-14T05:03:25.356Z,10
2019-05-14T05:04:23.059Z,10
2019-05-14T05:05:22.372Z,10
2019-05-14T05:06:24.244Z,10
2019-05-14T05:07:21.933Z,10
2019-05-14T05:08:25.177Z,10
2019-05-14T05:09:22.735Z,10
2019-05-14T05:10:21.931Z,10
2019-05-14T05:11:24.192Z,10
2019-05-14T05:12:22.418Z,10
2019-05-14T05:13:21.155Z,10
2019-05-14T05:14:23.709Z,15
2019-05-14T05:15:22.480Z,15
2019-05-14T05:16:22.013Z,15
2019-05-14T05:17:39.672Z,15
2019-05-14T05:18:21.309Z,15
2019-05-14T05:19:22.381Z,15
2019-05-14T05:20:21.999Z,15
2019-05-14T05:21:21.819Z,15
2019-05-14T05:22:19.537Z,15
2019-05-14T05:23:19.037Z,15
2019-05-14T05:24:21.081Z,15
2019-05-14T05:25:21.396Z,15
2019-05-14T05:26:21.101Z,15
2019-05-14T05:27:21.172Z,20
2019-05-14T05:28:21.707Z,20
2019-05-14T05:29:21.320Z,20
2019-05-14T05:30:21.756Z,20
2019-05-14T05:31:21.209Z,20
2019-05-14T05:32:21.929Z,20
2019-05-14T05:33:21.470Z,20
2019-05-14T05:34:21.911Z,20
2019-05-14T05:35:21.263Z,20
2019-05-14T05:36:21.187Z,20
2019-05-14T05:37:21.543Z,20
2019-05-14T05:38:21.031Z,20
2019-05-14T05:39:21.505Z,20
2019-05-14T05:40:22.271Z,20
2019-05-14T05:41:21.640Z,20
2019-05-14T05:42:21.467Z,20
2019-05-14T05:43:21.762Z,20
2019-05-14T05:44:21.378Z,25
2019-05-14T05:45:21.125Z,20
2019-05-14T05:46:21.704Z,20
2019-05-14T05:47:20.976Z,20
2019-05-14T05:48:21.318Z,20
2019-05-14T05:49:21.217Z,25
2019-05-14T05:50:21.810Z,25
2019-05-14T05:51:21.515Z,25
2019-05-14T05:52:21.673Z,25
2019-05-14T05:53:21.955Z,25
2019-05-14T05:54:21.246Z,25
2019-05-14T05:55:21.678Z,25
2019-05-14T05:56:21.418Z,25
2019-05-14T05:57:21.440Z,25
2019-05-14T05:58:22.171Z,25
2019-05-14T05:59:21.703Z,30
2019-05-14T06:00:21.584Z,30
2019-05-14T06:01:22.377Z,30
2019-05-14T06:02:21.478Z,30
2019-05-14T06:03:29.594Z,30
2019-05-14T06:04:20.781Z,30
2019-05-14T06:05:21.291Z,35
2019-05-14T06:06:24.781Z,35
2019-05-14T06:07:21.019Z,35
2019-05-14T06:08:21.422Z,35
2019-05-14T06:09:20.945Z,30
2019-05-14T06:10:18.751Z,35
2019-05-14T06:11:21.829Z,35
2019-05-14T06:12:21.662Z,40
2019-05-14T06:13:23.535Z,50
2019-05-14T06:14:21.170Z,60
2019-05-14T06:15:24.351Z,65
2019-05-14T06:16:21.384Z,70
2019-05-14T06:17:21.679Z,75
2019-05-14T06:18:34.231Z,85
2019-05-14T06:19:21.023Z,100
2019-05-14T06:20:21.560Z,140
2019-05-14T06:21:21.917Z,210
2019-05-14T06:22:21.611Z,265
2019-05-14T06:23:22.028Z,280
2019-05-14T06:24:22.030Z,280
2019-05-14T06:25:26.032Z,290
2019-05-14T06:26:24.471Z,295
2019-05-14T06:27:20.915Z,310
2019-05-14T06:28:23.376Z,315
2019-05-14T06:29:21.197Z,315
2019-05-14T06:30:20.960Z,315
2019-05-14T06:31:22.083Z,305
2019-05-14T06:32:21.397Z,295
2019-05-14T06:33:22.289Z,295
2019-05-14T06:34:21.336Z,300
2019-05-14T06:35:21.867Z,315
2019-05-14T06:36:24.925Z,325
2019-05-14T06:37:21.601Z,330
2019-05-14T06:38:21.260Z,340
2019-05-14T06:39:21.001Z,340
2019-05-14T06:40:21.842Z,335
2019-05-14T06:41:21.628Z,335
2019-05-14T06:42:21.875Z,330
2019-05-14T06:43:21.676Z,320
2019-05-14T06:44:21.363Z,300
2019-05-14T06:45:21.340Z,290
2019-05-14T06:46:21.859Z,280
2019-05-14T06:47:21.158Z,270
2019-05-14T06:48:42.191Z,265
2019-05-14T06:49:21.022Z,260
2019-05-14T06:50:21.885Z,255
2019-05-14T06:51:22.450Z,255
2019-05-14T06:52:21.413Z,250
2019-05-14T06:53:19.506Z,250
2019-05-14T06:54:22.328Z,245
2019-05-14T06:55:20.712Z,240
2019-05-14T06:56:22.005Z,235
2019-05-14T06:57:20.772Z,225
2019-05-14T06:58:23.054Z,220
2019-05-14T06:59:20.901Z,215
2019-05-14T07:00:21.481Z,210
2019-05-14T07:01:21.207Z,205
2019-05-14T07:02:21.906Z,200
2019-05-14T07:03:20.690Z,195
2019-05-14T07:04:20.873Z,190
2019-05-14T07:05:21.381Z,180
2019-05-14T07:06:21.315Z,170
2019-05-14T07:07:20.536Z,170
2019-05-14T07:08:21.453Z,165
2019-05-14T07:09:20.928Z,165
2019-05-14T07:10:22.102Z,165
2019-05-14T07:11:21.643Z,165
2019-05-14T07:12:21.827Z,165
2019-05-14T07:13:21.456Z,165
2019-05-14T07:14:24.145Z,165
2019-05-14T07:15:20.872Z,165
2019-05-14T07:16:22.243Z,165
2019-05-14T07:17:21.020Z,165
2019-05-14T07:18:21.713Z,165
2019-05-14T07:19:21.839Z,165
2019-05-14T07:20:21.474Z,165
2019-05-14T07:21:21.277Z,165
2019-05-14T07:22:22.043Z,165
2019-05-14T07:23:21.929Z,165
2019-05-14T07:24:22.245Z,165
2019-05-14T07:25:21.089Z,170
2019-05-14T07:26:22.104Z,165
2019-05-14T07:27:28.223Z,145
2019-05-14T07:28:24.598Z,165
2019-05-14T07:29:29.232Z,170
2019-05-14T07:30:24.015Z,165
2019-05-14T07:31:22.960Z,165
2019-05-14T07:32:21.840Z,165
2019-05-14T07:33:21.002Z,165
2019-05-14T07:34:21.748Z,165
2019-05-14T07:35:23.412Z,145
2019-05-14T07:36:24.593Z,170
2019-05-14T07:37:23.395Z,165
2019-05-14T07:38:22.693Z,170
2019-05-14T07:39:24.441Z,155
2019-05-14T07:40:24.090Z,160
2019-05-14T07:41:22.057Z,155
2019-05-14T07:42:21.679Z,150
2019-05-14T07:43:21.561Z,145
2019-05-14T07:44:23.377Z,140
2019-05-14T07:45:23.767Z,140
2019-05-14T07:46:24.509Z,135
2019-05-14T07:47:23.040Z,135
2019-05-14T07:48:25.153Z,135
2019-05-14T07:49:29.010Z,135
2019-05-14T07:50:22.286Z,140
2019-05-14T07:51:21.699Z,135
2019-05-14T07:52:22.458Z,135
2019-05-14T07:53:42.339Z,135
2019-05-14T07:54:24.828Z,130
2019-05-14T07:55:24.458Z,125
2019-05-14T07:56:25.306Z,130
2019-05-14T07:57:33.822Z,30
2019-05-14T07:58:24.116Z,120
2019-05-14T07:59:20.789Z,125
2019-05-14T08:00:21.738Z,125
2019-05-14T08:01:21.391Z,130
2019-05-14T08:02:24.874Z,130
2019-05-14T08:03:24.416Z,130
2019-05-14T08:04:28.895Z,25
2019-05-14T08:05:24.404Z,125
2019-05-14T08:06:23.486Z,125
2019-05-14T08:07:22.970Z,125
2019-05-14T08:08:21.307Z,125
2019-05-14T08:09:21.563Z,130
2019-05-14T08:10:21.261Z,120
2019-05-14T08:11:21.877Z,120
2019-05-14T08:12:25.657Z,115
2019-05-14T08:13:21.642Z,115
2019-05-14T08:14:21.255Z,110
2019-05-14T08:15:30.694Z,110
2019-05-14T08:16:21.391Z,110
2019-05-14T08:17:22.867Z,105
2019-05-14T08:18:21.563Z,105
2019-05-14T08:19:41.392Z,105
2019-05-14T08:20:21.071Z,105
2019-05-14T08:21:19.722Z,105
2019-05-14T08:22:21.329Z,100
2019-05-14T08:23:21.130Z,100
2019-05-14T08:24:30.217Z,100
2019-05-14T08:25:19.097Z,100
2019-05-14T08:26:19.216Z,105
2019-05-14T08:27:38.817Z,105
2019-05-14T08:28:21.226Z,25
2019-05-14T08:29:20.781Z,80
2019-05-14T08:30:21.424Z,35
2019-05-14T08:31:21.412Z,35
2019-05-14T08:32:21.602Z,60
2019-05-14T08:33:21.118Z,90
2019-05-14T08:34:21.902Z,90
2019-05-14T08:35:21.214Z,90
2019-05-14T08:36:21.054Z,90
2019-05-14T08:37:19.170Z,90
2019-05-14T08:38:23.748Z,90
2019-05-14T08:39:21.278Z,90
2019-05-14T08:40:28.565Z,90
2019-05-14T08:41:19.721Z,90
2019-05-14T08:42:21.266Z,95
2019-05-14T08:43:21.185Z,90
2019-05-14T08:44:19.685Z,90
2019-05-14T08:45:24.203Z,95
2019-05-14T08:46:21.854Z,95
2019-05-14T08:47:21.045Z,95
2019-05-14T08:48:24.367Z,80
2019-05-14T08:49:36.198Z,95
2019-05-14T08:50:28.069Z,95
2019-05-14T08:51:21.280Z,95
2019-05-14T08:52:21.894Z,25
2019-05-14T08:53:21.760Z,25
2019-05-14T08:54:21.400Z,20
2019-05-14T08:55:26.141Z,25
2019-05-14T08:56:21.882Z,95
2019-05-14T08:57:32.035Z,80
2019-05-14T08:58:29.889Z,50
2019-05-14T08:59:22.087Z,80
2019-05-14T09:00:26.150Z,90
2019-05-14T09:01:22.001Z,20
2019-05-14T09:02:22.307Z,90
2019-05-14T09:03:21.825Z,80
2019-05-14T09:04:24.560Z,20
2019-05-14T09:05:23.481Z,20
2019-05-14T09:06:21.292Z,20
2019-05-14T09:07:21.235Z,25
2019-05-14T09:08:21.720Z,30
2019-05-14T09:09:22.285Z,25
2019-05-14T09:10:21.855Z,95
2019-05-14T09:11:34.222Z,95
2019-05-14T09:12:24.100Z,95
2019-05-14T09:13:21.193Z,95
2019-05-14T09:14:24.288Z,25
2019-05-14T09:15:21.267Z,30
2019-05-14T09:16:38.271Z,95
2019-05-14T09:17:23.822Z,95
2019-05-14T09:18:23.725Z,65
2019-05-14T09:19:21.887Z,65
2019-05-14T09:20:24.192Z,25
2019-05-14T09:21:20.415Z,20
2019-05-14T09:22:21.178Z,35
2019-05-14T09:23:21.691Z,45
2019-05-14T09:24:20.885Z,25
2019-05-14T09:25:21.525Z,90
2019-05-14T09:26:20.793Z,70
2019-05-14T09:27:32.250Z,25
2019-05-14T09:28:21.528Z,90
2019-05-14T09:29:35.187Z,30
2019-05-14T09:30:21.208Z,65
2019-05-14T09:31:22.270Z,80
2019-05-14T09:32:21.821Z,80
2019-05-14T09:33:24.250Z,95
2019-05-14T09:34:22.137Z,85
2019-05-14T09:35:21.530Z,80
2019-05-14T09:36:34.274Z,80
2019-05-14T09:37:22.016Z,100
2019-05-14T09:38:21.510Z,70
2019-05-14T09:39:24.016Z,95
2019-05-14T09:40:22.350Z,50
2019-05-14T09:41:28.410Z,95
2019-05-14T09:42:22.068Z,25
2019-05-14T09:43:20.809Z,25
2019-05-14T09:44:21.403Z,95
2019-05-14T09:45:21.597Z,95
2019-05-14T09:46:21.275Z,95
2019-05-14T09:47:21.579Z,100
2019-05-14T09:48:20.760Z,100
2019-05-14T09:49:18.752Z,35
2019-05-14T09:50:34.248Z,30
2019-05-14T09:51:21.145Z,30
2019-05-14T09:52:21.460Z,25
2019-05-14T09:53:20.788Z,30
2019-05-14T09:54:21.801Z,95
2019-05-14T09:55:20.811Z,95
2019-05-14T09:56:21.340Z,95
2019-05-14T09:57:30.881Z,95
2019-05-14T09:58:22.345Z,95
2019-05-14T09:59:21.212Z,95
2019-05-14T10:00:23.958Z,95
2019-05-14T10:01:21.933Z,85
2019-05-14T10:02:19.707Z,25
2019-05-14T10:03:21.920Z,25
2019-05-14T10:04:19.614Z,25
2019-05-14T10:05:21.975Z,20
2019-05-14T10:06:23.174Z,80
2019-05-14T10:07:23.307Z,95
2019-05-14T10:08:21.880Z,95
2019-05-14T10:09:19.099Z,95
2019-05-14T10:10:22.181Z,25
2019-05-14T10:11:18.378Z,25
2019-05-14T10:12:19.776Z,25
2019-05-14T10:13:20.152Z,25
2019-05-14T10:14:18.540Z,25
2019-05-14T10:15:19.287Z,25
2019-05-14T10:16:21.628Z,25
2019-05-14T10:17:22.140Z,25
2019-05-14T10:18:24.299Z,20
2019-05-14T10:19:21.625Z,20
2019-05-14T10:20:45.263Z,20
2019-05-14T10:21:21.679Z,25
2019-05-14T10:22:22.115Z,25
2019-05-14T10:23:21.568Z,35
2019-05-14T10:24:21.350Z,105
2019-05-14T10:25:20.863Z,55
2019-05-14T10:26:21.351Z,110
2019-05-14T10:27:30.492Z,50
2019-05-14T10:28:21.852Z,35
2019-05-14T10:29:21.692Z,30
2019-05-14T10:30:23.587Z,30
2019-05-14T10:31:23.634Z,30
2019-05-14T10:32:21.352Z,30
2019-05-14T10:33:28.552Z,65
2019-05-14T10:34:19.296Z,100
2019-05-14T10:35:21.691Z,95
2019-05-14T10:36:22.181Z,25
2019-05-14T10:37:21.714Z,25
2019-05-14T10:38:21.711Z,25
2019-05-14T10:39:21.823Z,25
2019-05-14T10:40:23.590Z,30
2019-05-14T10:41:21.110Z,105
2019-05-14T10:42:22.644Z,30
2019-05-14T10:43:21.997Z,25
2019-05-14T10:44:21.474Z,25
2019-05-14T10:45:23.913Z,25
2019-05-14T10:46:21.832Z,95
2019-05-14T10:47:21.487Z,100
2019-05-14T10:48:21.333Z,100
2019-05-14T10:49:35.061Z,40
2019-05-14T10:50:26.040Z,95
2019-05-14T10:51:20.816Z,30
2019-05-14T10:52:22.033Z,95
2019-05-14T10:53:20.267Z,95
2019-05-14T10:54:38.825Z,90
2019-05-14T10:55:18.683Z,90
2019-05-14T10:56:22.006Z,90
2019-05-14T10:57:32.066Z,90
2019-05-14T10:58:22.258Z,90
2019-05-14T10:59:21.078Z,90
2019-05-14T11:00:21.284Z,90
2019-05-14T11:01:28.403Z,90
2019-05-14T11:02:23.895Z,90
2019-05-14T11:03:21.204Z,90
2019-05-14T11:04:19.199Z,90
2019-05-14T11:05:18.843Z,95
2019-05-14T11:06:24.031Z,95
2019-05-14T11:07:21.090Z,100
2019-05-14T11:08:24.258Z,65
2019-05-14T11:09:20.732Z,100
2019-05-14T11:10:22.136Z,50
2019-05-14T11:11:23.674Z,80
2019-05-14T11:12:22.017Z,35
2019-05-14T11:13:21.621Z,30
2019-05-14T11:14:21.998Z,25
2019-05-14T11:15:19.074Z,25
2019-05-14T11:16:21.594Z,25
2019-05-14T11:17:25.778Z,25
2019-05-14T11:18:22.182Z,25
2019-05-14T11:19:21.533Z,25
2019-05-14T11:20:19.116Z,50
2019-05-14T11:21:38.972Z,25
2019-05-14T11:22:21.106Z,30
2019-05-14T11:23:21.113Z,30
2019-05-14T11:24:21.405Z,30
2019-05-14T11:25:22.187Z,95
2019-05-14T11:26:24.293Z,95
2019-05-14T11:27:21.159Z,95
2019-05-14T11:28:21.720Z,90
2019-05-14T11:29:21.214Z,75
2019-05-14T11:30:22.032Z,90
2019-05-14T11:31:21.880Z,95
2019-05-14T11:32:21.144Z,80
2019-05-14T11:33:21.427Z,30
2019-05-14T11:34:21.842Z,25
2019-05-14T11:35:24.548Z,25
2019-05-14T11:36:21.438Z,25
2019-05-14T11:37:21.367Z,25
2019-05-14T11:38:45.235Z,95
2019-05-14T11:39:20.763Z,95
2019-05-14T11:40:21.694Z,95
2019-05-14T11:41:21.317Z,75
2019-05-14T11:42:19.955Z,100
2019-05-14T11:43:19.011Z,100
2019-05-14T11:44:19.654Z,100
2019-05-14T11:45:19.640Z,95
2019-05-14T11:46:43.124Z,35
2019-05-14T11:47:20.803Z,35
2019-05-14T11:48:22.058Z,35
2019-05-14T11:49:21.958Z,35
2019-05-14T11:50:22.007Z,55
2019-05-14T11:51:46.021Z,55
2019-05-14T11:52:23.310Z,55
2019-05-14T11:53:22.844Z,35
2019-05-14T11:54:23.439Z,35
2019-05-14T11:55:21.467Z,100
2019-05-14T11:56:21.958Z,95
2019-05-14T11:57:24.572Z,95
2019-05-14T11:58:23.738Z,95
2019-05-14T11:59:21.509Z,95
2019-05-14T12:00:25.606Z,95
2019-05-14T12:01:21.690Z,95
2019-05-14T12:02:21.581Z,25
2019-05-14T12:03:22.406Z,60
2019-05-14T12:04:21.465Z,35
2019-05-14T12:05:21.713Z,90
2019-05-14T12:06:21.313Z,55
2019-05-14T12:07:21.359Z,40
2019-05-14T12:08:21.261Z,35
2019-05-14T12:09:24.160Z,35
2019-05-14T12:10:21.519Z,35
2019-05-14T12:11:22.044Z,45
2019-05-14T12:12:24.337Z,35
2019-05-14T12:13:21.959Z,40
2019-05-14T12:14:21.678Z,55
2019-05-14T12:15:21.377Z,45
2019-05-14T12:16:19.103Z,40
2019-05-14T12:17:19.948Z,35
2019-05-14T12:18:21.327Z,35
2019-05-14T12:19:24.251Z,55
2019-05-14T12:20:18.640Z,35
2019-05-14T12:21:19.429Z,35
2019-05-14T12:22:24.351Z,105
2019-05-14T12:23:21.769Z,55
2019-05-14T12:24:26.206Z,55
2019-05-14T12:25:21.373Z,50
2019-05-14T12:26:21.831Z,105
2019-05-14T12:27:21.655Z,40
2019-05-14T12:28:29.106Z,40
2019-05-14T12:29:20.615Z,35
2019-05-14T12:30:22.378Z,100
2019-05-14T12:31:19.868Z,95
2019-05-14T12:32:24.136Z,55
2019-05-14T12:33:22.135Z,110
2019-05-14T12:34:21.117Z,100
2019-05-14T12:35:22.474Z,50
2019-05-14T12:36:24.525Z,100
2019-05-14T12:37:21.261Z,95
2019-05-14T12:38:21.513Z,35
2019-05-14T12:39:21.434Z,30
2019-05-14T12:40:21.932Z,30
2019-05-14T12:41:22.172Z,35
2019-05-14T12:42:24.503Z,100
2019-05-14T12:43:21.440Z,80
2019-05-14T12:44:22.269Z,65
2019-05-14T12:45:21.805Z,100
2019-05-14T12:46:22.868Z,40
2019-05-14T12:47:21.513Z,35
2019-05-14T12:48:21.525Z,35
2019-05-14T12:49:23.980Z,40
2019-05-14T12:50:19.878Z,110
2019-05-14T12:51:21.273Z,80
2019-05-14T12:52:38.828Z,45
2019-05-14T12:53:22.452Z,40
2019-05-14T12:54:22.453Z,35
2019-05-14T12:55:22.288Z,35
2019-05-14T12:56:21.451Z,30
2019-05-14T12:57:21.499Z,30
2019-05-14T12:58:20.131Z,30
2019-05-14T12:59:19.014Z,35
2019-05-14T13:00:19.425Z,35
2019-05-14T13:01:22.597Z,30
2019-05-14T13:02:21.445Z,30
2019-05-14T13:03:21.674Z,30
2019-05-14T13:04:22.654Z,30
2019-05-14T13:05:21.014Z,35
2019-05-14T13:06:21.779Z,35
2019-05-14T13:07:21.790Z,40
2019-05-14T13:08:23.689Z,35
2019-05-14T13:09:24.392Z,35
2019-05-14T13:12:26.821Z,30
2019-05-14T13:12:41.865Z,30
2019-05-14T13:13:45.290Z,30
2019-05-14T13:14:39.394Z,30
2019-05-14T13:15:41.828Z,25
2019-05-14T13:16:42.195Z,25
2019-05-14T13:17:41.614Z,30
2019-05-14T13:18:41.422Z,30
2019-05-14T13:19:40.717Z,35
2019-05-14T13:20:41.608Z,95
2019-05-14T13:21:41.644Z,85
2019-05-14T13:22:55.901Z,70
2019-05-14T13:23:42.901Z,90
2019-05-14T13:24:42.193Z,40
2019-05-14T13:25:44.680Z,45
2019-05-14T13:26:41.775Z,40
2019-05-14T13:27:55.416Z,45
2019-05-14T13:28:42.395Z,35
2019-05-14T13:29:39.580Z,35
2019-05-14T13:30:40.973Z,30
2019-05-14T13:31:40.100Z,30
2019-05-14T13:32:41.904Z,25
2019-05-14T13:33:41.775Z,20
2019-05-14T13:34:42.297Z,20
2019-05-14T13:35:41.617Z,20
2019-05-14T13:36:44.877Z,20
2019-05-14T13:37:42.326Z,20
2019-05-14T13:38:39.551Z,70
2019-05-14T13:39:42.406Z,85
2019-05-14T13:40:41.800Z,85
2019-05-14T13:41:44.360Z,30
2019-05-14T13:42:44.582Z,25
2019-05-14T13:43:44.088Z,35
2019-05-14T13:44:41.214Z,35
2019-05-14T13:45:42.057Z,30
2019-05-14T13:46:39.135Z,30
2019-05-14T13:47:41.378Z,30
2019-05-14T13:48:49.553Z,30
2019-05-14T13:49:41.792Z,25
2019-05-14T13:50:42.863Z,25
2019-05-14T13:51:48.809Z,25
2019-05-14T13:52:59.636Z,25
2019-05-14T13:53:41.719Z,30
2019-05-14T13:54:44.673Z,30
2019-05-14T13:55:57.041Z,25
2019-05-14T13:56:39.099Z,25
2019-05-14T13:57:50.657Z,20
2019-05-14T13:58:39.332Z,20
2019-05-14T13:59:43.535Z,20
2019-05-14T14:00:37.975Z,20
2019-05-14T14:01:40.272Z,15
2019-05-14T14:02:41.591Z,15
2019-05-14T14:04:03.527Z,10
2019-05-14T14:04:38.224Z,10
2019-05-14T14:05:39.169Z,15
2019-05-14T14:06:39.321Z,15
2019-05-14T14:07:39.405Z,15
2019-05-14T14:08:44.884Z,20
2019-05-14T14:09:42.295Z,20
2019-05-14T14:11:05.121Z,20
2019-05-14T14:11:43.616Z,20
2019-05-14T14:12:48.677Z,25
2019-05-14T14:13:41.932Z,25
2019-05-14T14:14:41.349Z,50
2019-05-14T14:15:41.155Z,45
2019-05-14T14:16:42.130Z,60
2019-05-14T14:17:41.872Z,40
2019-05-14T14:18:42.313Z,35
2019-05-14T14:19:38.939Z,60
2019-05-14T14:20:42.164Z,35
2019-05-14T14:21:42.393Z,50
2019-05-14T14:28:15.312Z,50
2019-05-14T14:29:02.637Z,45
2019-05-14T14:30:03.942Z,50
2019-05-14T14:31:01.589Z,50
2019-05-14T14:32:04.052Z,75
2019-05-14T14:33:04.162Z,75
2019-05-14T14:34:02.893Z,70
2019-05-14T14:35:04.193Z,25
2019-05-14T14:36:03.727Z,20
2019-05-14T14:37:08.797Z,20
2019-05-14T14:38:04.356Z,15
2019-05-14T14:39:04.141Z,15
2019-05-14T14:40:04.969Z,15
2019-05-14T14:41:03.482Z,15
2019-05-14T14:42:03.758Z,15
2019-05-14T14:43:04.500Z,15
2019-05-14T14:44:05.019Z,15
2019-05-14T14:45:01.536Z,10
2019-05-14T14:46:13.821Z,10